createdAt,value
2022-08-16T00:01:43.941Z,100251.84
2022-08-16T00:04:13.651Z,100254.78
2022-08-16T00:06:45.685Z,100256.44
2022-08-16T00:09:14.757Z,100260.94
2022-08-16T00:11:44.708Z,100262.75
2022-08-16T00:14:17.745Z,100270.78
2022-08-16T00:17:05.987Z,100266.09
2022-08-16T00:19:41.490Z,100261.19
2022-08-16T00:22:13.679Z,100265.75
2022-08-16T00:24:44.758Z,100268.22
2022-08-16T00:27:15.744Z,100274.81
2022-08-16T00:29:46.157Z,100270.56
2022-08-16T00:32:18.022Z,100273.13
2022-08-16T00:34:52.918Z,100274.25
2022-08-16T00:37:57.951Z,100277.47
2022-08-16T00:40:34.028Z,100279.91
2022-08-16T00:43:11.658Z,100280.47
2022-08-16T00:46:00.257Z,100277.19
2022-08-16T00:48:43.757Z,100275.31
2022-08-16T00:51:16.154Z,100276.13
2022-08-16T00:53:47.594Z,100276.06
2022-08-16T00:56:51.880Z,100278.06
2022-08-16T00:59:11.186Z,100267.88
2022-08-16T01:01:45.754Z,100270.78
2022-08-16T01:04:29.372Z,100265.81
2022-08-16T01:07:02.289Z,100265.31
2022-08-16T01:09:34.353Z,100272.78
2022-08-16T01:12:10.650Z,100264.94
2022-08-16T01:14:45.245Z,100273.53
2022-08-16T01:17:19.066Z,100270.88
2022-08-16T01:19:56.980Z,100269.00
2022-08-16T01:22:57.645Z,100278.31
2022-08-16T01:25:33.704Z,100272.34
2022-08-16T01:28:04.908Z,100269.25
2022-08-16T01:30:40.173Z,100268.59
2022-08-16T01:33:22.373Z,100260.28
2022-08-16T01:35:56.217Z,100271.09
2022-08-16T01:38:28.492Z,100268.38
2022-08-16T01:41:02.003Z,100267.56
2022-08-16T01:43:32.790Z,100275.53
2022-08-16T01:46:37.314Z,100264.28
2022-08-16T01:48:57.360Z,100276.53
2022-08-16T01:51:28.319Z,100273.34
2022-08-16T01:53:57.442Z,100262.41
2022-08-16T01:56:29.414Z,100266.75
2022-08-16T01:59:00.990Z,100266.25
2022-08-16T02:01:30.406Z,100273.22
2022-08-16T02:04:10.220Z,100275.88
2022-08-16T02:06:46.636Z,100270.03
2022-08-16T02:09:17.685Z,100272.53
2022-08-16T02:11:56.587Z,100282.41
2022-08-16T02:14:29.681Z,100287.28
2022-08-16T02:17:01.550Z,100282.91
2022-08-16T02:19:58.410Z,100283.28
2022-08-16T02:22:34.049Z,100273.03
2022-08-16T02:25:09.951Z,100271.84
2022-08-16T02:27:41.746Z,100271.19
2022-08-16T02:30:35.864Z,100271.50
2022-08-16T02:33:07.578Z,100274.16
2022-08-16T02:35:49.678Z,100270.72
2022-08-16T02:38:23.334Z,100263.44
2022-08-16T02:40:54.448Z,100269.81
2022-08-16T02:43:26.445Z,100265.06
2022-08-16T02:45:55.645Z,100270.56
2022-08-16T02:48:30.333Z,100266.59
2022-08-16T02:51:10.709Z,100269.72
2022-08-16T02:53:43.856Z,100261.28
2022-08-16T02:56:15.631Z,100269.06
2022-08-16T02:58:47.868Z,100271.91
2022-08-16T03:01:24.766Z,100271.88
2022-08-16T03:04:41.106Z,100273.75
2022-08-16T03:06:56.869Z,100269.94
2022-08-16T03:09:28.760Z,100275.84
2022-08-16T03:11:58.859Z,100270.22
2022-08-16T03:14:31.096Z,100273.72
2022-08-16T03:17:01.895Z,100276.03
2022-08-16T03:19:48.028Z,100284.50
2022-08-16T03:22:28.723Z,100283.00
2022-08-16T03:25:01.221Z,100276.47
2022-08-16T03:27:32.226Z,100270.03
2022-08-16T03:30:16.059Z,100266.94
2022-08-16T03:32:47.053Z,100270.06
2022-08-16T03:35:17.543Z,100272.88
2022-08-16T03:38:01.720Z,100271.94
2022-08-16T03:40:33.261Z,100275.81
2022-08-16T03:43:20.160Z,100282.09
2022-08-16T03:45:53.226Z,100283.44
2022-08-16T03:48:36.880Z,100288.28
2022-08-16T03:51:12.986Z,100272.34
2022-08-16T03:53:42.745Z,100281.16
2022-08-16T03:56:19.858Z,100283.16
2022-08-16T03:58:51.154Z,100283.34
2022-08-16T04:01:23.485Z,100275.81
2022-08-16T04:03:52.836Z,100282.66
2022-08-16T04:06:23.770Z,100285.28
2022-08-16T04:08:52.702Z,100280.63
2022-08-16T04:11:23.850Z,100286.94
2022-08-16T04:13:59.891Z,100291.25
2022-08-16T04:16:37.136Z,100294.50
2022-08-16T04:19:05.825Z,100292.72
2022-08-16T04:21:35.501Z,100297.81
2022-08-16T04:24:07.763Z,100309.72
2022-08-16T04:26:37.283Z,100314.00
2022-08-16T04:29:23.498Z,100314.81
2022-08-16T04:31:57.877Z,100311.09
2022-08-16T04:34:29.476Z,100315.78
2022-08-16T04:37:01.399Z,100323.81
2022-08-16T04:39:44.967Z,100315.28
2022-08-16T04:42:16.097Z,100317.84
2022-08-16T04:44:53.590Z,100324.22
2022-08-16T04:47:33.165Z,100324.59
2022-08-16T04:50:06.128Z,100325.50
2022-08-16T04:52:37.117Z,100332.09
2022-08-16T04:55:09.455Z,100339.59
2022-08-16T04:57:39.098Z,100335.41
2022-08-16T05:00:30.494Z,100336.59
2022-08-16T05:03:07.133Z,100336.06
2022-08-16T05:05:44.969Z,100344.88
2022-08-16T05:08:28.909Z,100339.28
2022-08-16T05:11:00.269Z,100349.72
2022-08-16T05:13:41.092Z,100352.25
2022-08-16T05:16:20.154Z,100348.47
2022-08-16T05:18:56.546Z,100355.97
2022-08-16T05:21:26.824Z,100357.81
2022-08-16T05:24:00.307Z,100348.81
2022-08-16T05:26:32.979Z,100357.13
2022-08-16T05:29:04.440Z,100353.66
2022-08-16T05:31:35.051Z,100359.81
2022-08-16T05:34:05.813Z,100362.72
2022-08-16T05:36:51.196Z,100359.22
2022-08-16T05:39:20.896Z,100364.69
2022-08-16T05:41:52.082Z,100365.84
2022-08-16T05:44:24.274Z,100366.84
2022-08-16T05:46:55.029Z,100364.03
2022-08-16T05:49:39.937Z,100366.69
2022-08-16T05:52:11.225Z,100357.47
2022-08-16T05:54:47.683Z,100362.00
2022-08-16T05:57:18.298Z,100355.56
2022-08-16T05:59:50.526Z,100361.88
2022-08-16T06:02:33.372Z,100353.66
2022-08-16T06:05:04.194Z,100355.41
2022-08-16T06:07:32.904Z,100354.91
2022-08-16T06:10:02.994Z,100367.63
2022-08-16T06:12:32.673Z,100378.25
2022-08-16T06:15:04.430Z,100390.03
2022-08-16T06:17:45.957Z,100389.63
2022-08-16T06:20:18.104Z,100387.56
2022-08-16T06:23:02.767Z,100392.66
2022-08-16T06:25:36.502Z,100388.97
2022-08-16T06:28:10.218Z,100381.59
2022-08-16T06:30:43.559Z,100384.91
2022-08-16T06:33:19.650Z,100385.22
2022-08-16T06:35:55.318Z,100374.94
2022-08-16T06:38:33.386Z,100383.41
2022-08-16T06:41:05.421Z,100377.63
2022-08-16T06:43:35.090Z,100373.22
2022-08-16T06:46:09.894Z,100377.44
2022-08-16T06:48:42.926Z,100383.88
2022-08-16T06:51:11.862Z,100383.00
2022-08-16T06:53:43.550Z,100391.38
2022-08-16T06:56:14.495Z,100387.94
2022-08-16T06:58:52.977Z,100386.41
2022-08-16T07:01:46.102Z,100391.88
2022-08-16T07:04:12.216Z,100390.53
2022-08-16T07:06:43.038Z,100393.81
2022-08-16T07:09:12.861Z,100392.38
2022-08-16T07:11:46.235Z,100391.41
2022-08-16T07:14:24.584Z,100402.84
2022-08-16T07:16:59.005Z,100401.09
2022-08-16T07:20:01.765Z,100416.94
2022-08-16T07:22:38.731Z,100423.00
2022-08-16T07:25:11.766Z,100405.81
2022-08-16T07:27:40.834Z,100407.47
2022-08-16T07:30:38.849Z,100402.25
2022-08-16T07:33:03.468Z,100411.72
2022-08-16T07:35:34.309Z,100413.16
2022-08-16T07:38:02.954Z,100409.25
2022-08-16T07:40:59.246Z,100407.13
2022-08-16T07:43:20.620Z,100412.09
2022-08-16T07:45:52.875Z,100415.06
2022-08-16T07:48:22.267Z,100418.66
2022-08-16T07:50:59.186Z,100416.28
2022-08-16T07:53:30.549Z,100437.78
2022-08-16T07:56:01.199Z,100432.63
2022-08-16T07:58:36.353Z,100440.41
2022-08-16T08:01:10.525Z,100438.47
2022-08-16T08:03:49.103Z,100436.72
2022-08-16T08:06:21.168Z,100450.19
2022-08-16T08:08:57.239Z,100446.50
2022-08-16T08:11:28.630Z,100450.91
2022-08-16T08:14:02.975Z,100447.28
2022-08-16T08:16:33.369Z,100459.88
2022-08-16T08:19:04.782Z,100459.38
2022-08-16T08:21:58.325Z,100452.19
2022-08-16T08:24:32.209Z,100452.03
2022-08-16T08:27:04.265Z,100441.63
2022-08-16T08:29:37.636Z,100451.88
2022-08-16T08:32:59.930Z,100449.94
2022-08-16T08:35:03.206Z,100450.53
2022-08-16T08:37:55.799Z,100450.88
2022-08-16T08:40:26.586Z,100459.31
2022-08-16T08:42:57.888Z,100452.97
2022-08-16T08:45:47.128Z,100460.19
2022-08-16T08:48:33.441Z,100468.81
2022-08-16T08:51:05.925Z,100465.03
2022-08-16T08:53:39.856Z,100465.34
2022-08-16T08:56:23.587Z,100463.50
2022-08-16T08:58:59.945Z,100459.03
2022-08-16T09:01:36.582Z,100455.78
2022-08-16T09:04:14.310Z,100464.91
2022-08-16T09:06:45.881Z,100456.41
2022-08-16T09:09:16.927Z,100455.84
2022-08-16T09:11:52.717Z,100462.84
2022-08-16T09:14:27.339Z,100468.25
2022-08-16T09:17:01.461Z,100469.06
2022-08-16T09:19:37.285Z,100469.78
2022-08-16T09:22:20.103Z,100462.06
2022-08-16T09:24:54.008Z,100467.41
2022-08-16T09:27:56.918Z,100469.59
2022-08-16T09:30:32.600Z,100464.88
2022-08-16T09:33:03.593Z,100463.31
2022-08-16T09:35:37.376Z,100456.81
2022-08-16T09:38:08.647Z,100460.97
2022-08-16T09:40:42.369Z,100467.53
2022-08-16T09:43:37.647Z,100456.25
2022-08-16T09:46:02.699Z,100453.84
2022-08-16T09:48:44.379Z,100451.66
2022-08-16T09:51:19.667Z,100465.00
2022-08-16T09:53:53.911Z,100458.41
2022-08-16T09:56:31.530Z,100455.28
2022-08-16T09:59:03.861Z,100457.69
2022-08-16T10:01:38.531Z,100461.88
2022-08-16T10:04:31.675Z,100459.25
2022-08-16T10:07:01.976Z,100459.06
2022-08-16T10:09:45.027Z,100447.88
2022-08-16T10:12:42.284Z,100456.69
2022-08-16T10:15:15.638Z,100459.97
2022-08-16T10:18:01.223Z,100461.38
2022-08-16T10:20:34.768Z,100451.81
2022-08-16T10:23:07.980Z,100448.66
2022-08-16T10:27:22.007Z,100451.47
2022-08-16T10:28:39.842Z,100455.13
2022-08-16T10:31:16.760Z,100453.19
2022-08-16T10:33:46.561Z,100446.59
2022-08-16T10:36:38.846Z,100460.69
2022-08-16T10:39:05.243Z,100453.22
2022-08-16T10:41:36.999Z,100449.22
2022-08-16T10:44:09.658Z,100447.66
2022-08-16T10:46:41.569Z,100460.84
2022-08-16T10:49:13.075Z,100448.47
2022-08-16T10:52:01.221Z,100447.09
2022-08-16T10:54:32.098Z,100449.75
2022-08-16T10:57:04.482Z,100450.72
2022-08-16T10:59:44.096Z,100451.63
2022-08-16T11:02:57.740Z,100457.56
2022-08-16T11:05:14.955Z,100459.66
2022-08-16T11:07:53.797Z,100456.84
2022-08-16T11:16:26.663Z,100452.13
2022-08-16T11:19:04.056Z,100448.38
2022-08-16T11:21:37.965Z,100461.66
2022-08-16T11:24:42.937Z,100462.56
2022-08-16T11:27:19.594Z,100459.19
2022-08-16T11:29:52.273Z,100464.16
2022-08-16T11:32:32.462Z,100460.34
2022-08-16T11:35:13.883Z,100461.16
2022-08-16T11:40:44.246Z,100468.13
2022-08-16T11:43:16.605Z,100461.97
2022-08-16T11:45:53.502Z,100469.25
2022-08-16T11:48:24.953Z,100453.88
2022-08-16T11:50:54.160Z,100467.44
2022-08-16T11:53:23.811Z,100455.69
2022-08-16T11:55:54.897Z,100457.72
2022-08-16T11:58:25.401Z,100451.28
2022-08-16T12:00:57.494Z,100456.50
2022-08-16T12:03:35.413Z,100460.69
2022-08-16T12:06:11.001Z,100462.34
2022-08-16T12:08:55.606Z,100462.41
2022-08-16T12:11:25.796Z,100465.34
2022-08-16T12:13:55.402Z,100469.69
2022-08-16T12:16:23.748Z,100469.09
2022-08-16T12:19:01.258Z,100465.00
2022-08-16T12:21:36.096Z,100460.78
2022-08-16T12:24:17.934Z,100460.66
2022-08-16T12:26:46.342Z,100457.47
2022-08-16T12:29:14.973Z,100463.13
2022-08-16T12:32:01.481Z,100458.16
2022-08-16T12:34:34.633Z,100460.63
2022-08-16T12:37:08.994Z,100456.34
2022-08-16T12:39:47.156Z,100449.78
2022-08-16T12:42:20.865Z,100463.88
2022-08-16T12:44:49.594Z,100459.03
2022-08-16T12:47:36.582Z,100464.56
2022-08-16T12:50:10.601Z,100458.72
2022-08-16T12:52:52.080Z,100465.94
2022-08-16T12:55:22.238Z,100473.19
2022-08-16T12:57:58.396Z,100470.06
2022-08-16T13:00:33.030Z,100469.59
2022-08-16T13:03:04.278Z,100468.84
2022-08-16T13:05:47.745Z,100462.72
2022-08-16T13:08:27.480Z,100474.88
2022-08-16T13:11:00.176Z,100466.94
2022-08-16T13:13:29.633Z,100468.16
2022-08-16T13:16:05.690Z,100470.88
2022-08-16T13:18:39.330Z,100464.50
2022-08-16T13:21:10.956Z,100469.31
2022-08-16T13:23:43.220Z,100464.75
2022-08-16T13:26:12.827Z,100468.94
2022-08-16T13:28:47.762Z,100457.94
2022-08-16T13:31:16.743Z,100460.84
2022-08-16T13:33:46.341Z,100457.31
2022-08-16T13:36:32.239Z,100454.13
2022-08-16T13:39:05.597Z,100463.00
2022-08-16T13:41:34.037Z,100462.72
2022-08-16T13:44:04.152Z,100452.19
2022-08-16T13:46:37.760Z,100460.31
2022-08-16T13:49:07.155Z,100460.88
2022-08-16T13:51:37.091Z,100456.88
2022-08-16T13:54:08.347Z,100465.56
2022-08-16T13:56:39.977Z,100463.16
2022-08-16T13:59:14.207Z,100463.22
2022-08-16T14:01:55.045Z,100448.56
2022-08-16T14:04:27.475Z,100455.31
2022-08-16T14:06:58.616Z,100461.06
2022-08-16T14:09:28.506Z,100461.22
2022-08-16T14:11:57.815Z,100463.66
2022-08-16T14:14:29.004Z,100459.63
2022-08-16T14:16:59.463Z,100466.56
2022-08-16T14:19:29.663Z,100462.09
2022-08-16T14:22:14.908Z,100462.56
2022-08-16T14:24:49.604Z,100465.84
2022-08-16T14:27:21.325Z,100467.22
2022-08-16T14:29:52.284Z,100468.84
2022-08-16T14:32:33.382Z,100460.78
2022-08-16T14:35:06.096Z,100462.78
2022-08-16T14:37:38.157Z,100461.81
2022-08-16T14:40:09.832Z,100457.78
2022-08-16T14:42:38.938Z,100464.56
2022-08-16T14:45:09.235Z,100472.59
2022-08-16T14:47:38.517Z,100467.13
2022-08-16T14:50:09.757Z,100463.72
2022-08-16T14:53:03.868Z,100467.28
2022-08-16T14:55:36.415Z,100468.22
2022-08-16T14:58:06.115Z,100465.59
2022-08-16T15:00:38.843Z,100470.06
2022-08-16T15:03:10.995Z,100467.97
2022-08-16T15:05:41.581Z,100464.44
2022-08-16T15:08:11.752Z,100459.56
2022-08-16T15:10:44.879Z,100455.91
2022-08-16T15:13:16.425Z,100454.41
2022-08-16T15:15:56.276Z,100449.25
2022-08-16T15:18:28.180Z,100443.00
2022-08-16T15:21:02.227Z,100457.06
2022-08-16T15:23:33.912Z,100459.84
2022-08-16T15:26:08.334Z,100452.78
2022-08-16T15:28:38.106Z,100448.56
2022-08-16T15:31:09.711Z,100452.13
2022-08-16T15:33:44.305Z,100445.47
2022-08-16T15:36:21.158Z,100457.94
2022-08-16T15:38:57.481Z,100447.50
2022-08-16T15:41:58.431Z,100462.66
2022-08-16T15:44:44.160Z,100454.47
2022-08-16T15:47:19.714Z,100455.31
2022-08-16T15:49:54.613Z,100458.00
2022-08-16T15:52:29.883Z,100455.81
2022-08-16T15:55:12.805Z,100459.91
2022-08-16T15:57:52.387Z,100458.53
2022-08-16T16:00:22.255Z,100460.63
2022-08-16T16:03:03.700Z,100454.19
2022-08-16T16:05:32.320Z,100443.75
2022-08-16T16:08:11.146Z,100458.06
2022-08-16T16:10:44.403Z,100455.63
2022-08-16T16:13:23.009Z,100458.13
2022-08-16T16:15:54.444Z,100454.69
2022-08-16T16:18:24.795Z,100460.78
2022-08-16T16:20:57.407Z,100446.63
2022-08-16T16:23:29.507Z,100453.72
2022-08-16T16:26:00.475Z,100454.94
2022-08-16T16:29:08.012Z,100462.63
2022-08-16T16:31:26.318Z,100459.13
2022-08-16T16:33:58.838Z,100451.16
2022-08-16T16:36:29.656Z,100458.06
2022-08-16T16:38:58.489Z,100444.91
2022-08-16T16:41:30.413Z,100460.03
2022-08-16T16:44:02.090Z,100455.38
2022-08-16T16:46:42.939Z,100453.03
2022-08-16T16:49:14.853Z,100456.59
2022-08-16T16:51:49.734Z,100450.97
2022-08-16T16:54:28.034Z,100456.38
2022-08-16T16:56:58.853Z,100451.56
2022-08-16T16:59:28.023Z,100451.09
2022-08-16T17:02:39.430Z,100454.22
2022-08-16T17:04:47.724Z,100447.78
2022-08-16T17:07:16.276Z,100458.81
2022-08-16T17:09:45.784Z,100450.97
2022-08-16T17:12:22.629Z,100454.50
2022-08-16T17:14:54.074Z,100449.25
2022-08-16T17:17:23.109Z,100439.31
2022-08-16T17:19:51.714Z,100445.19
2022-08-16T17:22:22.823Z,100446.03
2022-08-16T17:24:53.310Z,100455.69
2022-08-16T17:30:20.646Z,100450.28
2022-08-16T17:33:01.537Z,100447.22
2022-08-16T17:35:36.040Z,100452.81
2022-08-16T17:38:08.088Z,100447.97
2022-08-16T17:39:26.846Z,100441.72
2022-08-16T17:40:49.401Z,100449.81
2022-08-16T17:43:31.049Z,100451.91
2022-08-16T17:46:00.167Z,100450.38
2022-08-16T17:48:31.135Z,100454.88
2022-08-16T17:51:00.105Z,100452.75
2022-08-16T17:53:28.601Z,100457.59
2022-08-16T17:55:57.076Z,100463.78
2022-08-16T17:58:27.264Z,100459.16
2022-08-16T18:00:59.763Z,100466.22
2022-08-16T18:04:02.414Z,100456.69
2022-08-16T18:06:23.981Z,100461.16
2022-08-16T18:09:00.340Z,100456.41
2022-08-16T18:11:32.812Z,100463.16
2022-08-16T18:14:02.902Z,100467.66
2022-08-16T18:16:31.283Z,100477.88
2022-08-16T18:18:59.972Z,100480.88
2022-08-16T18:21:46.313Z,100477.31
2022-08-16T18:24:15.985Z,100483.91
2022-08-16T18:26:44.372Z,100470.88
2022-08-16T18:29:14.068Z,100481.91
2022-08-16T18:31:42.446Z,100484.09
2022-08-16T18:34:10.960Z,100474.56
2022-08-16T18:36:39.452Z,100480.50
2022-08-16T18:39:07.763Z,100481.97
2022-08-16T18:41:38.021Z,100481.53
2022-08-16T18:44:26.668Z,100488.13
2022-08-16T18:46:57.549Z,100485.94
2022-08-16T18:49:25.887Z,100487.47
2022-08-16T18:51:58.565Z,100488.94
2022-08-16T18:54:28.214Z,100490.50
2022-08-16T18:56:58.344Z,100490.94
2022-08-16T18:59:29.333Z,100490.59
2022-08-16T19:02:05.009Z,100489.31
2022-08-16T19:04:50.405Z,100489.22
2022-08-16T19:07:30.920Z,100492.69
2022-08-16T19:10:01.609Z,100496.25
2022-08-16T19:12:38.603Z,100505.16
2022-08-16T19:15:15.717Z,100509.41
2022-08-16T19:17:46.225Z,100513.69
2022-08-16T19:20:17.306Z,100510.38
2022-08-16T19:23:05.569Z,100511.47
2022-08-16T19:25:47.109Z,100513.72
2022-08-16T19:28:49.099Z,100508.13
2022-08-16T19:31:15.442Z,100511.59
2022-08-16T19:33:53.860Z,100511.47
2022-08-16T19:36:31.662Z,100521.06
2022-08-16T19:39:04.755Z,100518.00
2022-08-16T19:41:36.343Z,100523.94
2022-08-16T19:44:07.359Z,100524.97
2022-08-16T19:46:36.106Z,100533.38
2022-08-16T19:49:07.607Z,100525.13
2022-08-16T19:51:35.963Z,100528.69
2022-08-16T19:54:06.530Z,100533.75
2022-08-16T19:56:34.842Z,100540.97
2022-08-16T19:59:20.964Z,100543.34
2022-08-16T20:01:52.584Z,100546.06
2022-08-16T20:04:24.629Z,100554.31
2022-08-16T20:06:55.619Z,100548.66
2022-08-16T20:09:25.224Z,100557.03
2022-08-16T20:11:54.354Z,100557.41
2022-08-16T20:14:26.283Z,100558.59
2022-08-16T20:16:57.299Z,100562.25
2022-08-16T20:19:29.178Z,100572.41
2022-08-16T20:22:03.259Z,100570.41
2022-08-16T20:24:35.555Z,100571.00
2022-08-16T20:27:06.139Z,100574.19
2022-08-16T20:29:35.152Z,100578.06
2022-08-16T20:32:04.140Z,100577.38
2022-08-16T20:34:33.883Z,100577.94
2022-08-16T20:37:02.433Z,100580.78
2022-08-16T20:39:30.783Z,100589.66
2022-08-16T20:41:59.319Z,100583.16
2022-08-16T20:44:27.672Z,100572.16
2022-08-16T20:46:55.987Z,100575.22
2022-08-16T20:49:24.325Z,100575.53
2022-08-16T20:51:59.113Z,100579.56
2022-08-16T20:54:29.466Z,100587.25
2022-08-16T20:56:57.805Z,100587.97
2022-08-16T20:59:26.334Z,100589.47
2022-08-16T21:01:54.885Z,100585.81
2022-08-16T21:04:26.459Z,100587.72
2022-08-16T21:06:58.463Z,100591.69
2022-08-16T21:09:31.471Z,100587.22
2022-08-16T21:12:02.683Z,100592.06
2022-08-16T21:14:34.243Z,100597.25
2022-08-16T21:17:03.246Z,100593.94
2022-08-16T21:19:31.947Z,100600.31
2022-08-16T21:22:13.252Z,100599.50
2022-08-16T21:24:41.976Z,100594.53
2022-08-16T21:27:11.492Z,100595.72
2022-08-16T21:29:43.148Z,100593.59
2022-08-16T21:32:15.143Z,100595.94
2022-08-16T21:34:44.002Z,100591.31
2022-08-16T21:37:15.657Z,100596.50
2022-08-16T21:39:44.667Z,100587.50
2022-08-16T21:42:16.440Z,100591.53
2022-08-16T21:44:45.064Z,100584.22
2022-08-16T21:47:13.510Z,100582.91
2022-08-16T21:49:42.003Z,100591.41
2022-08-16T21:52:25.943Z,100585.59
2022-08-16T21:54:58.011Z,100577.13
2022-08-16T21:57:26.560Z,100576.16
2022-08-16T22:00:06.613Z,100576.50
2022-08-16T22:02:35.873Z,100583.22
2022-08-16T22:05:08.130Z,100574.72
2022-08-16T22:07:36.437Z,100579.69
2022-08-16T22:11:04.504Z,100583.22
2022-08-16T22:12:57.021Z,100583.09
2022-08-16T22:15:26.226Z,100585.97
2022-08-16T22:17:57.621Z,100591.28
2022-08-16T22:20:28.188Z,100595.28
2022-08-16T22:23:08.059Z,100591.97
2022-08-16T22:25:39.789Z,100590.16
2022-08-16T22:28:08.123Z,100595.69
2022-08-16T22:30:36.682Z,100597.25
2022-08-16T22:33:10.314Z,100595.09
2022-08-16T22:35:45.044Z,100596.94
2022-08-16T22:38:54.277Z,100599.78
2022-08-16T22:41:05.229Z,100598.97
2022-08-16T22:43:34.041Z,100595.44
2022-08-16T22:46:02.434Z,100597.81
2022-08-16T22:48:30.741Z,100596.63
2022-08-16T22:51:07.956Z,100592.47
2022-08-16T22:53:37.414Z,100589.00
2022-08-16T22:56:08.221Z,100594.91
2022-08-16T22:58:37.364Z,100588.97
2022-08-16T23:01:06.497Z,100582.81
2022-08-16T23:03:35.357Z,100593.84
2022-08-16T23:06:03.831Z,100592.53
2022-08-16T23:08:39.315Z,100588.41
2022-08-16T23:11:13.331Z,100586.75
2022-08-16T23:13:53.046Z,100578.91
2022-08-16T23:16:33.185Z,100575.47
2022-08-16T23:19:05.304Z,100566.72
2022-08-16T23:21:34.140Z,100578.50
2022-08-16T23:24:03.245Z,100577.66
2022-08-16T23:26:44.354Z,100573.50
2022-08-16T23:29:25.289Z,100572.41
2022-08-16T23:31:59.623Z,100576.06
2022-08-16T23:34:29.792Z,100574.06
2022-08-16T23:36:58.233Z,100575.09
2022-08-16T23:39:27.064Z,100566.88
2022-08-16T23:41:56.873Z,100564.31
2022-08-16T23:44:55.415Z,100560.81
2022-08-16T23:47:13.851Z,100570.69
2022-08-16T23:49:58.642Z,100567.41
2022-08-16T23:52:53.208Z,100569.41
2022-08-16T23:55:19.634Z,100570.91
2022-08-16T23:57:49.941Z,100574.03
